createdAt,value
2022-10-14T00:01:20.356Z,10.10
2022-10-14T00:03:49.800Z,10.10
2022-10-14T00:06:18.180Z,10.10
2022-10-14T00:08:45.372Z,10.10
2022-10-14T00:11:13.075Z,10.00
2022-10-14T00:13:39.872Z,10.00
2022-10-14T00:16:09.910Z,10.00
2022-10-14T00:18:36.440Z,9.90
2022-10-14T00:21:03.317Z,9.90
2022-10-14T00:23:30.146Z,10.00
2022-10-14T00:25:59.017Z,9.90
2022-10-14T00:28:25.626Z,10.00
2022-10-14T00:30:59.304Z,9.90
2022-10-14T00:33:26.534Z,9.90
2022-10-14T00:35:57.219Z,9.90
2022-10-14T00:38:23.795Z,9.90
2022-10-14T00:40:50.887Z,9.90
2022-10-14T00:43:18.804Z,9.90
2022-10-14T00:45:45.375Z,9.90
2022-10-14T00:48:12.426Z,9.90
2022-10-14T00:50:41.885Z,9.90
2022-10-14T00:53:08.647Z,9.90
2022-10-14T00:55:35.257Z,10.00
2022-10-14T00:58:01.802Z,9.90
2022-10-14T01:00:28.428Z,10.00
2022-10-14T01:02:56.177Z,10.10
2022-10-14T01:05:23.045Z,10.10
2022-10-14T01:07:54.554Z,10.10
2022-10-14T01:10:33.521Z,10.10
2022-10-14T01:13:04.284Z,10.10
2022-10-14T01:15:41.406Z,10.10
2022-10-14T01:18:25.674Z,10.10
2022-10-14T01:21:04.509Z,10.10
2022-10-14T01:23:52.976Z,10.10
2022-10-14T01:26:34.865Z,10.10
2022-10-14T01:29:09.307Z,10.20
2022-10-14T01:31:38.654Z,10.20
2022-10-14T01:34:07.170Z,10.10
2022-10-14T01:36:36.385Z,10.20
2022-10-14T01:39:06.144Z,10.10
2022-10-14T01:41:35.836Z,10.20
2022-10-14T01:44:05.253Z,10.20
2022-10-14T01:46:33.511Z,10.20
2022-10-14T01:49:05.705Z,10.20
2022-10-14T01:51:36.865Z,10.20
2022-10-14T01:54:06.899Z,10.20
2022-10-14T01:56:38.153Z,10.20
2022-10-14T01:59:08.413Z,10.20
2022-10-14T02:01:36.559Z,10.20
2022-10-14T02:04:03.191Z,10.20
2022-10-14T02:06:34.670Z,10.20
2022-10-14T02:09:04.188Z,10.20
2022-10-14T02:11:34.236Z,10.20
2022-10-14T02:14:01.064Z,10.20
2022-10-14T02:16:34.519Z,10.20
2022-10-14T02:19:27.164Z,10.20
2022-10-14T02:21:53.800Z,10.20
2022-10-14T02:24:22.634Z,10.20
2022-10-14T02:26:50.570Z,10.10
2022-10-14T02:29:21.291Z,10.20
2022-10-14T02:31:48.037Z,10.20
2022-10-14T02:34:15.992Z,10.20
2022-10-14T02:36:43.147Z,10.20
2022-10-14T02:39:11.723Z,10.10
2022-10-14T02:41:38.659Z,10.20
2022-10-14T02:44:06.012Z,10.20
2022-10-14T02:46:33.373Z,10.20
2022-10-14T02:49:00.000Z,10.20
2022-10-14T02:51:26.591Z,10.20
2022-10-14T02:53:53.103Z,10.30
2022-10-14T02:56:19.643Z,10.30
2022-10-14T02:58:46.266Z,10.30
2022-10-14T03:01:12.914Z,10.30
2022-10-14T03:03:39.462Z,10.30
2022-10-14T03:06:06.164Z,10.30
2022-10-14T03:08:35.110Z,10.30
2022-10-14T03:11:01.717Z,10.30
2022-10-14T03:13:28.253Z,10.30
2022-10-14T03:15:54.780Z,10.40
2022-10-14T03:18:21.723Z,10.30
2022-10-14T03:20:48.279Z,10.40
2022-10-14T03:23:14.893Z,10.40
2022-10-14T03:25:43.641Z,10.30
2022-10-14T03:28:10.245Z,10.30
2022-10-14T03:30:36.769Z,10.30
2022-10-14T03:33:03.368Z,10.40
2022-10-14T03:35:29.963Z,10.30
2022-10-14T03:37:56.885Z,10.30
2022-10-14T03:40:23.403Z,10.30
2022-10-14T03:42:50.020Z,10.30
2022-10-14T03:45:16.632Z,10.30
2022-10-14T03:47:43.258Z,10.30
2022-10-14T03:50:09.968Z,10.20
2022-10-14T03:52:36.797Z,10.20
2022-10-14T03:55:03.693Z,10.20
2022-10-14T03:57:30.626Z,10.30
2022-10-14T03:59:57.124Z,10.20
2022-10-14T04:02:24.089Z,10.30
2022-10-14T04:04:50.904Z,10.30
2022-10-14T04:07:19.808Z,10.30
2022-10-14T04:09:46.470Z,10.30
2022-10-14T04:12:13.077Z,10.30
2022-10-14T04:14:39.671Z,10.20
2022-10-14T04:17:06.183Z,10.20
2022-10-14T04:19:32.865Z,10.20
2022-10-14T04:21:59.443Z,10.20
2022-10-14T04:24:26.090Z,10.20
2022-10-14T04:26:52.716Z,10.20
2022-10-14T04:29:22.233Z,10.20
2022-10-14T04:31:48.782Z,10.30
2022-10-14T04:34:15.297Z,10.30
2022-10-14T04:36:42.306Z,10.30
2022-10-14T04:39:08.831Z,10.30
2022-10-14T04:41:35.509Z,10.30
2022-10-14T04:44:02.029Z,10.30
2022-10-14T04:46:28.583Z,10.30
2022-10-14T04:48:59.177Z,10.30
2022-10-14T04:51:25.857Z,10.30
2022-10-14T04:53:52.377Z,10.30
2022-10-14T04:56:22.525Z,10.40
2022-10-14T04:58:49.213Z,10.30
2022-10-14T05:01:15.874Z,10.40
2022-10-14T05:03:42.483Z,10.30
2022-10-14T05:06:09.122Z,10.40
2022-10-14T05:08:36.136Z,10.40
2022-10-14T05:11:02.793Z,10.40
2022-10-14T05:13:29.976Z,10.40
2022-10-14T05:15:56.549Z,10.40
2022-10-14T05:18:23.193Z,10.40
2022-10-14T05:20:49.787Z,10.40
2022-10-14T05:23:16.313Z,10.40
2022-10-14T05:25:42.924Z,10.40
2022-10-14T05:28:09.444Z,10.40
2022-10-14T05:30:43.805Z,10.40
2022-10-14T05:33:20.571Z,10.40
2022-10-14T05:35:59.405Z,10.40
2022-10-14T05:38:39.879Z,10.30
2022-10-14T05:41:11.520Z,10.40
2022-10-14T05:43:43.743Z,10.30
2022-10-14T05:46:25.262Z,10.40
2022-10-14T05:48:56.388Z,10.30
2022-10-14T05:51:23.488Z,10.30
2022-10-14T05:54:04.716Z,10.30
2022-10-14T05:56:33.761Z,10.40
2022-10-14T05:59:00.310Z,10.40
2022-10-14T06:01:26.994Z,10.30
2022-10-14T06:03:53.545Z,10.30
2022-10-14T06:06:20.123Z,10.40
2022-10-14T06:08:46.779Z,10.30
2022-10-14T06:11:13.479Z,10.40
2022-10-14T06:13:40.241Z,10.40
2022-10-14T06:16:08.233Z,10.50
2022-10-14T06:18:35.313Z,10.50
2022-10-14T06:21:02.052Z,10.60
2022-10-14T06:23:28.584Z,10.60
2022-10-14T06:25:55.773Z,10.70
2022-10-14T06:28:25.961Z,10.80
2022-10-14T06:30:53.661Z,10.80
2022-10-14T06:33:21.890Z,10.80
2022-10-14T06:35:48.712Z,10.90
2022-10-14T06:38:17.429Z,10.90
2022-10-14T06:40:44.318Z,10.90
2022-10-14T06:43:10.859Z,11.00
2022-10-14T06:45:37.389Z,11.10
2022-10-14T06:48:04.802Z,11.10
2022-10-14T06:50:31.314Z,11.20
2022-10-14T06:52:57.956Z,11.20
2022-10-14T06:55:24.486Z,11.20
2022-10-14T06:57:51.037Z,11.30
2022-10-14T07:00:17.711Z,11.30
2022-10-14T07:02:44.976Z,11.30
2022-10-14T07:05:11.735Z,11.40
2022-10-14T07:07:38.548Z,11.40
2022-10-14T07:10:05.268Z,11.50
2022-10-14T07:12:31.787Z,11.50
2022-10-14T07:14:58.440Z,11.50
2022-10-14T07:17:25.257Z,11.60
2022-10-14T07:19:52.042Z,11.60
2022-10-14T07:22:18.569Z,11.60
2022-10-14T07:24:45.193Z,11.70
2022-10-14T07:27:11.811Z,11.70
2022-10-14T07:29:38.356Z,11.80
2022-10-14T07:32:05.092Z,11.80
2022-10-14T07:34:33.612Z,11.80
2022-10-14T07:37:00.445Z,11.90
2022-10-14T07:39:27.526Z,11.90
2022-10-14T07:41:54.079Z,11.90
2022-10-14T07:44:23.627Z,11.90
2022-10-14T07:46:53.100Z,11.90
2022-10-14T07:49:20.448Z,12.00
2022-10-14T07:51:47.638Z,12.10
2022-10-14T07:54:16.067Z,12.10
2022-10-14T07:56:43.210Z,12.20
2022-10-14T07:59:10.250Z,12.20
2022-10-14T08:01:37.335Z,12.30
2022-10-14T08:04:04.019Z,12.30
2022-10-14T08:06:30.610Z,12.30
2022-10-14T08:08:57.105Z,12.30
2022-10-14T08:11:24.946Z,12.40
2022-10-14T08:13:52.001Z,12.40
2022-10-14T08:16:23.621Z,12.40
2022-10-14T08:18:50.585Z,12.50
2022-10-14T08:21:18.107Z,12.50
2022-10-14T08:23:45.105Z,12.50
2022-10-14T08:26:30.873Z,12.50
2022-10-14T08:28:58.409Z,12.50
2022-10-14T08:31:25.137Z,12.40
2022-10-14T08:33:51.688Z,12.40
2022-10-14T08:36:19.088Z,12.40
2022-10-14T08:38:45.925Z,12.40
2022-10-14T08:41:12.415Z,12.40
2022-10-14T08:43:48.103Z,12.50
2022-10-14T08:46:30.705Z,12.60
2022-10-14T08:49:07.597Z,12.70
2022-10-14T08:51:34.479Z,12.80
2022-10-14T08:54:06.373Z,12.90
2022-10-14T08:56:35.063Z,13.10
2022-10-14T08:59:05.021Z,13.20
2022-10-14T09:01:32.564Z,13.30
2022-10-14T09:04:06.818Z,13.30
2022-10-14T09:06:34.504Z,13.40
2022-10-14T09:09:14.151Z,13.40
2022-10-14T09:11:42.816Z,13.50
2022-10-14T09:14:12.417Z,13.60
2022-10-14T09:16:40.313Z,13.60
2022-10-14T09:19:14.279Z,13.80
2022-10-14T09:21:52.761Z,13.90
2022-10-14T09:24:20.057Z,13.90
2022-10-14T09:26:52.337Z,14.00
2022-10-14T09:29:21.759Z,14.10
2022-10-14T09:31:48.395Z,14.10
2022-10-14T09:34:20.408Z,14.10
2022-10-14T09:36:48.300Z,14.20
2022-10-14T09:39:14.903Z,14.30
2022-10-14T09:41:41.825Z,14.40
2022-10-14T09:44:21.194Z,14.60
2022-10-14T09:47:10.738Z,14.60
2022-10-14T09:49:43.852Z,14.70
2022-10-14T09:52:21.297Z,14.80
2022-10-14T09:54:52.825Z,14.80
2022-10-14T09:57:20.069Z,14.90
2022-10-14T09:59:51.981Z,15.00
2022-10-14T10:02:21.519Z,15.10
2022-10-14T10:04:48.679Z,15.20
2022-10-14T10:07:32.035Z,15.10
2022-10-14T10:09:59.999Z,15.10
2022-10-14T10:12:30.777Z,15.00
2022-10-14T10:14:58.677Z,14.90
2022-10-14T10:17:27.135Z,14.90
2022-10-14T10:20:08.593Z,14.90
2022-10-14T10:22:39.056Z,15.10
2022-10-14T10:25:08.368Z,15.10
2022-10-14T10:27:36.514Z,15.20
2022-10-14T10:30:19.477Z,15.10
2022-10-14T10:33:04.854Z,15.20
2022-10-14T10:35:43.981Z,15.20
2022-10-14T10:38:31.517Z,15.20
2022-10-14T10:40:58.164Z,15.10
2022-10-14T10:43:25.145Z,15.10
2022-10-14T10:46:00.993Z,15.10
2022-10-14T10:48:35.861Z,15.20
2022-10-14T10:51:17.595Z,15.20
2022-10-14T10:54:02.778Z,15.20
2022-10-14T10:56:31.467Z,15.20
2022-10-14T10:59:16.989Z,15.20
2022-10-14T11:01:46.752Z,15.20
2022-10-14T11:04:31.099Z,15.30
2022-10-14T11:07:34.808Z,15.40
2022-10-14T11:10:29.016Z,15.60
2022-10-14T11:13:01.912Z,15.70
2022-10-14T11:15:49.632Z,15.70
2022-10-14T11:18:22.253Z,15.80
2022-10-14T11:21:04.709Z,15.80
2022-10-14T11:23:37.472Z,15.90
2022-10-14T11:26:22.923Z,16.00
2022-10-14T11:28:54.814Z,16.00
2022-10-14T11:31:27.815Z,15.90
2022-10-14T11:33:54.453Z,16.00
2022-10-14T11:36:20.945Z,16.00
2022-10-14T11:38:54.238Z,16.00
2022-10-14T11:41:23.911Z,16.00
2022-10-14T11:43:55.993Z,16.10
2022-10-14T11:46:26.320Z,16.10
2022-10-14T11:48:55.337Z,16.20
2022-10-14T11:51:34.801Z,16.20
2022-10-14T11:54:08.609Z,16.20
2022-10-14T11:56:41.314Z,16.20
2022-10-14T11:59:23.007Z,16.20
2022-10-14T12:01:52.195Z,16.20
2022-10-14T12:04:30.884Z,16.20
2022-10-14T12:07:02.404Z,16.10
2022-10-14T12:09:51.722Z,16.20
2022-10-14T12:12:22.327Z,16.30
2022-10-14T12:14:50.155Z,16.30
2022-10-14T12:17:52.453Z,16.30
2022-10-14T12:20:25.526Z,16.30
2022-10-14T12:22:52.909Z,16.30
2022-10-14T12:25:21.769Z,16.30
2022-10-14T12:27:49.087Z,16.40
2022-10-14T12:30:36.278Z,16.40
2022-10-14T12:33:05.368Z,16.30
2022-10-14T12:35:51.761Z,16.20
2022-10-14T12:38:19.152Z,16.10
2022-10-14T12:40:49.380Z,16.10
2022-10-14T12:43:26.422Z,16.10
2022-10-14T12:46:13.237Z,16.20
2022-10-14T12:48:48.196Z,16.20
2022-10-14T12:51:17.302Z,16.20
2022-10-14T12:54:04.591Z,16.30
2022-10-14T12:56:31.189Z,16.30
2022-10-14T12:59:01.377Z,16.30
2022-10-14T13:01:31.030Z,16.40
2022-10-14T13:04:00.376Z,16.50
2022-10-14T13:06:26.945Z,16.60
2022-10-14T13:09:11.685Z,16.50
2022-10-14T13:11:39.271Z,16.40
2022-10-14T13:14:25.849Z,16.40
2022-10-14T13:16:52.410Z,16.30
2022-10-14T13:19:39.436Z,16.20
2022-10-14T13:22:18.252Z,16.10
2022-10-14T13:24:45.426Z,16.00
2022-10-14T13:27:30.993Z,16.00
2022-10-14T13:30:16.234Z,16.00
2022-10-14T13:32:52.626Z,16.00
2022-10-14T13:35:22.467Z,16.10
2022-10-14T13:38:12.627Z,16.10
2022-10-14T13:40:42.999Z,16.20
2022-10-14T13:43:21.784Z,16.20
2022-10-14T13:46:02.594Z,16.20
2022-10-14T13:48:29.190Z,16.20
2022-10-14T13:51:17.375Z,16.20
2022-10-14T13:53:53.592Z,16.30
2022-10-14T13:56:30.951Z,16.30
2022-10-14T13:58:58.451Z,16.40
2022-10-14T14:01:29.863Z,16.30
2022-10-14T14:03:57.165Z,16.30
2022-10-14T14:06:24.699Z,16.20
2022-10-14T14:08:55.574Z,16.00
2022-10-14T14:11:22.149Z,15.80
2022-10-14T14:13:59.211Z,15.60
2022-10-14T14:16:32.620Z,15.60
2022-10-14T14:19:14.629Z,15.50
2022-10-14T14:21:41.292Z,15.40
2022-10-14T14:24:15.165Z,15.40
2022-10-14T14:26:41.813Z,15.40
2022-10-14T14:29:19.104Z,15.50
2022-10-14T14:34:34.648Z,15.60
2022-10-14T14:37:16.563Z,15.60
2022-10-14T14:40:01.444Z,15.60
2022-10-14T14:42:30.659Z,15.60
2022-10-14T14:44:58.837Z,15.70
2022-10-14T14:47:26.721Z,15.60
2022-10-14T14:50:01.633Z,15.60
2022-10-14T14:52:39.834Z,15.50
2022-10-14T14:55:06.636Z,15.40
2022-10-14T14:57:33.405Z,15.40
2022-10-14T15:03:31.866Z,15.30
2022-10-14T15:06:00.101Z,15.00
2022-10-14T15:08:37.806Z,14.90
2022-10-14T15:11:04.642Z,14.80
2022-10-14T15:13:42.220Z,14.80
2022-10-14T15:16:08.936Z,14.70
2022-10-14T15:18:37.788Z,14.70
2022-10-14T15:21:19.388Z,14.70
2022-10-14T15:23:48.712Z,14.70
2022-10-14T15:26:21.752Z,14.60
2022-10-14T15:29:02.159Z,14.60
2022-10-14T15:31:28.762Z,14.60
2022-10-14T15:33:55.321Z,14.40
2022-10-14T15:36:21.985Z,14.30
2022-10-14T15:38:48.748Z,14.20
2022-10-14T15:41:15.266Z,14.10
2022-10-14T15:43:41.764Z,14.10
2022-10-14T15:46:30.764Z,14.00
2022-10-14T15:48:58.410Z,13.90
2022-10-14T15:51:28.232Z,13.80
2022-10-14T15:53:54.750Z,13.80
2022-10-14T15:56:21.454Z,13.80
2022-10-14T15:58:48.498Z,13.70
2022-10-14T16:01:17.518Z,13.70
2022-10-14T16:03:44.244Z,13.60
2022-10-14T16:06:10.789Z,13.60
2022-10-14T16:08:37.989Z,13.60
2022-10-14T16:11:04.682Z,13.50
2022-10-14T16:13:31.180Z,13.50
2022-10-14T16:15:59.939Z,13.50
2022-10-14T16:18:26.556Z,13.40
2022-10-14T16:20:53.068Z,13.40
2022-10-14T16:23:20.210Z,13.30
2022-10-14T16:25:49.159Z,13.30
2022-10-14T16:28:16.639Z,13.20
2022-10-14T16:30:48.535Z,13.20
2022-10-14T16:33:16.187Z,13.20
2022-10-14T16:35:43.074Z,13.10
2022-10-14T16:38:12.681Z,13.10
2022-10-14T16:40:39.314Z,13.00
2022-10-14T16:43:06.233Z,13.00
2022-10-14T16:45:32.782Z,12.90
2022-10-14T16:47:59.287Z,12.90
2022-10-14T16:50:25.892Z,12.90
2022-10-14T16:53:11.237Z,12.80
2022-10-14T16:55:39.325Z,12.80
2022-10-14T16:58:05.846Z,12.80
2022-10-14T17:00:32.556Z,12.70
2022-10-14T17:02:59.139Z,12.70
2022-10-14T17:05:26.978Z,12.60
2022-10-14T17:07:53.711Z,12.60
2022-10-14T17:10:21.309Z,12.50
2022-10-14T17:12:47.984Z,12.50
2022-10-14T17:15:14.472Z,12.50
2022-10-14T17:17:41.118Z,12.50
2022-10-14T17:20:09.189Z,12.40
2022-10-14T17:22:35.944Z,12.50
2022-10-14T17:25:02.619Z,12.50
2022-10-14T17:27:29.147Z,12.50
2022-10-14T17:29:55.686Z,12.50
2022-10-14T17:32:22.790Z,12.50
2022-10-14T17:34:53.249Z,12.50
2022-10-14T17:37:20.390Z,12.50
2022-10-14T17:39:47.075Z,12.50
2022-10-14T17:42:13.585Z,12.50
2022-10-14T17:44:43.788Z,12.50
2022-10-14T17:47:10.906Z,12.50
2022-10-14T17:49:37.447Z,12.60
2022-10-14T17:52:06.174Z,12.60
2022-10-14T17:54:32.771Z,12.60
2022-10-14T17:56:59.285Z,12.70
2022-10-14T17:59:25.940Z,12.70
2022-10-14T18:02:07.790Z,12.70
2022-10-14T18:04:34.484Z,12.70
2022-10-14T18:07:01.437Z,12.70
2022-10-14T18:09:28.029Z,12.70
2022-10-14T18:12:10.508Z,12.80
2022-10-14T18:14:40.763Z,12.80
2022-10-14T18:17:07.983Z,12.80
2022-10-14T18:19:35.008Z,12.80
2022-10-14T18:22:02.664Z,12.80
2022-10-14T18:24:29.240Z,12.80
2022-10-14T18:26:55.769Z,12.80
2022-10-14T18:29:23.209Z,12.80
2022-10-14T18:34:17.184Z,12.90
2022-10-14T18:36:43.700Z,12.90
2022-10-14T18:39:10.996Z,12.80
2022-10-14T18:41:37.596Z,12.90
2022-10-14T18:44:05.038Z,12.90
2022-10-14T18:46:33.045Z,12.90
2022-10-14T18:49:00.273Z,13.00
2022-10-14T18:51:27.993Z,12.90
2022-10-14T18:53:56.636Z,13.00
2022-10-14T18:56:27.381Z,12.90
2022-10-14T18:59:05.668Z,13.00
2022-10-14T19:01:32.961Z,13.00
2022-10-14T19:03:59.543Z,13.00
2022-10-14T19:06:26.828Z,13.00
2022-10-14T19:08:53.583Z,13.00
2022-10-14T19:11:24.516Z,13.00
2022-10-14T19:13:52.039Z,13.00
2022-10-14T19:16:20.126Z,13.00
2022-10-14T19:18:46.780Z,13.00
2022-10-14T19:21:14.855Z,13.00
2022-10-14T19:23:45.047Z,12.90
2022-10-14T19:26:13.212Z,12.90
2022-10-14T19:28:39.936Z,12.90
2022-10-14T19:31:07.143Z,12.90
2022-10-14T19:33:40.558Z,13.00
2022-10-14T19:36:07.235Z,13.00
2022-10-14T19:38:34.219Z,13.00
2022-10-14T19:41:01.032Z,13.00
2022-10-14T19:43:28.055Z,13.00
2022-10-14T19:45:54.981Z,13.00
2022-10-14T19:48:21.869Z,13.10
2022-10-14T19:50:48.904Z,13.00
2022-10-14T19:53:15.522Z,13.00
2022-10-14T19:55:42.537Z,13.00
2022-10-14T19:58:09.309Z,13.00
2022-10-14T20:00:36.032Z,12.90
2022-10-14T20:03:02.688Z,12.90
2022-10-14T20:05:31.296Z,12.90
2022-10-14T20:07:57.996Z,12.90
2022-10-14T20:10:24.848Z,12.90
2022-10-14T20:12:51.407Z,12.90
2022-10-14T20:15:17.976Z,12.90
2022-10-14T20:17:44.492Z,12.90
2022-10-14T20:20:11.209Z,12.90
2022-10-14T20:22:37.791Z,12.90
2022-10-14T20:25:04.454Z,12.90
2022-10-14T20:27:31.500Z,12.90
2022-10-14T20:29:58.480Z,12.90
2022-10-14T20:32:25.031Z,12.90
2022-10-14T20:34:51.666Z,12.90
2022-10-14T20:37:18.241Z,12.90
2022-10-14T20:39:44.740Z,12.90
2022-10-14T20:42:11.657Z,12.90
2022-10-14T20:44:39.972Z,12.90
2022-10-14T20:47:06.494Z,12.90
2022-10-14T20:49:33.030Z,13.00
2022-10-14T20:51:59.708Z,13.00
2022-10-14T20:54:26.305Z,13.00
2022-10-14T20:56:52.838Z,13.00
2022-10-14T20:59:19.399Z,12.90
2022-10-14T21:01:46.446Z,12.90
2022-10-14T21:04:12.988Z,12.90
2022-10-14T21:06:39.822Z,12.90
2022-10-14T21:09:07.121Z,12.90
2022-10-14T21:11:33.669Z,12.90
2022-10-14T21:14:00.652Z,13.00
2022-10-14T21:16:27.749Z,13.00
2022-10-14T21:18:57.722Z,13.00
2022-10-14T21:21:25.865Z,13.00
2022-10-14T21:23:52.493Z,13.00
2022-10-14T21:26:18.989Z,13.10
2022-10-14T21:28:45.686Z,13.10
2022-10-14T21:31:15.969Z,13.00
2022-10-14T21:33:45.489Z,13.10
2022-10-14T21:36:12.877Z,13.10
2022-10-14T21:38:39.924Z,13.10
2022-10-14T21:41:06.869Z,13.10
2022-10-14T21:43:34.900Z,13.10
2022-10-14T21:46:05.994Z,13.10
2022-10-14T21:48:33.249Z,13.20
2022-10-14T21:51:04.562Z,13.10
2022-10-14T21:53:31.640Z,13.10
2022-10-14T21:55:58.541Z,13.10
2022-10-14T21:58:25.422Z,13.00
2022-10-14T22:00:52.165Z,13.00
2022-10-14T22:03:18.758Z,13.00
2022-10-14T22:05:45.338Z,13.00
2022-10-14T22:08:11.936Z,13.00
2022-10-14T22:10:41.569Z,13.00
2022-10-14T22:13:08.184Z,13.00
2022-10-14T22:15:35.572Z,13.00
2022-10-14T22:18:02.598Z,12.90
2022-10-14T22:20:29.096Z,12.90
2022-10-14T22:22:55.624Z,12.90
2022-10-14T22:25:22.210Z,12.90
2022-10-14T22:27:48.704Z,12.90
2022-10-14T22:30:15.306Z,12.90
2022-10-14T22:32:41.898Z,12.90
2022-10-14T22:35:08.824Z,12.90
2022-10-14T22:37:35.385Z,12.90
2022-10-14T22:40:02.057Z,12.90
2022-10-14T22:42:40.537Z,12.80
2022-10-14T22:45:09.242Z,12.80
2022-10-14T22:47:35.810Z,12.80
2022-10-14T22:50:02.610Z,12.80
2022-10-14T22:52:29.157Z,12.80
2022-10-14T22:54:55.726Z,12.80
2022-10-14T22:57:22.262Z,12.80
2022-10-14T22:59:48.772Z,12.80
2022-10-14T23:02:15.312Z,12.70
2022-10-14T23:04:41.965Z,12.70
2022-10-14T23:07:08.643Z,12.70
2022-10-14T23:12:06.849Z,12.70
2022-10-14T23:14:33.416Z,12.70
2022-10-14T23:16:59.909Z,12.70
2022-10-14T23:19:26.485Z,12.70
2022-10-14T23:21:53.037Z,12.70
2022-10-14T23:24:19.608Z,12.70
2022-10-14T23:26:46.196Z,12.70
2022-10-14T23:29:12.808Z,12.70
2022-10-14T23:31:39.656Z,12.70
2022-10-14T23:34:15.137Z,12.70
2022-10-14T23:36:42.346Z,12.70
2022-10-14T23:39:09.392Z,12.60
2022-10-14T23:41:35.938Z,12.60
2022-10-14T23:44:03.118Z,12.70
2022-10-14T23:46:29.644Z,12.60
2022-10-14T23:49:07.285Z,12.60
2022-10-14T23:51:40.929Z,12.60
2022-10-14T23:54:07.773Z,12.60
2022-10-14T23:56:34.283Z,12.60
2022-10-14T23:59:00.852Z,12.60
